createdAt,value
2018-07-02T00:00:19.832Z,0.00
2018-07-02T00:01:19.862Z,0.00
2018-07-02T00:02:19.858Z,0.00
2018-07-02T00:03:19.832Z,0.00
2018-07-02T00:04:19.840Z,0.00
2018-07-02T00:05:19.838Z,0.00
2018-07-02T00:06:19.834Z,0.00
2018-07-02T00:07:19.839Z,0.00
2018-07-02T00:08:19.890Z,0.00
2018-07-02T00:09:19.839Z,0.00
2018-07-02T00:10:19.838Z,0.00
2018-07-02T00:11:19.894Z,0.00
2018-07-02T00:12:19.800Z,0.00
2018-07-02T00:13:19.819Z,0.00
2018-07-02T00:14:19.822Z,0.00
2018-07-02T00:15:19.825Z,0.00
2018-07-02T00:16:19.837Z,0.00
2018-07-02T00:17:19.821Z,0.00
2018-07-02T00:18:19.841Z,0.00
2018-07-02T00:19:19.864Z,0.00
2018-07-02T00:20:19.818Z,0.00
2018-07-02T00:21:19.858Z,0.00
2018-07-02T00:22:19.824Z,0.00
2018-07-02T00:23:19.849Z,0.00
2018-07-02T00:24:19.806Z,0.00
2018-07-02T00:25:19.823Z,0.00
2018-07-02T00:26:19.818Z,0.00
2018-07-02T00:27:19.821Z,0.00
2018-07-02T00:28:19.807Z,0.00
2018-07-02T00:29:19.824Z,0.00
2018-07-02T00:30:19.838Z,0.00
2018-07-02T00:31:19.829Z,0.00
2018-07-02T00:32:19.833Z,0.00
2018-07-02T00:33:19.820Z,0.00
2018-07-02T00:34:19.806Z,0.00
2018-07-02T00:35:19.777Z,0.00
2018-07-02T00:36:19.823Z,0.00
2018-07-02T00:37:19.802Z,0.00
2018-07-02T00:38:19.803Z,0.00
2018-07-02T00:39:19.858Z,0.00
2018-07-02T00:40:19.794Z,0.00
2018-07-02T00:41:19.845Z,0.00
2018-07-02T00:42:19.834Z,0.00
2018-07-02T00:43:19.830Z,0.00
2018-07-02T00:44:19.803Z,0.00
2018-07-02T00:45:19.774Z,0.00
2018-07-02T00:46:19.822Z,0.00
2018-07-02T00:47:19.790Z,0.00
2018-07-02T00:48:19.803Z,0.00
2018-07-02T00:49:19.756Z,0.00
2018-07-02T00:50:19.788Z,0.00
2018-07-02T00:51:19.774Z,0.00
2018-07-02T00:52:19.772Z,0.00
2018-07-02T00:53:19.773Z,0.00
2018-07-02T00:54:19.763Z,0.00
2018-07-02T00:55:19.773Z,0.00
2018-07-02T00:56:19.775Z,0.00
2018-07-02T00:57:19.770Z,0.00
2018-07-02T00:58:19.743Z,0.00
2018-07-02T00:59:19.771Z,0.00
2018-07-02T01:00:19.753Z,0.00
2018-07-02T01:01:19.819Z,0.00
2018-07-02T01:02:19.737Z,0.00
2018-07-02T01:03:19.742Z,0.00
2018-07-02T01:04:19.753Z,0.00
2018-07-02T01:05:19.765Z,0.00
2018-07-02T01:06:19.766Z,0.00
2018-07-02T01:07:19.818Z,0.00
2018-07-02T01:08:19.790Z,0.00
2018-07-02T01:09:19.797Z,0.00
2018-07-02T01:10:19.779Z,0.00
2018-07-02T01:11:19.774Z,0.00
2018-07-02T01:12:19.751Z,0.00
2018-07-02T01:13:19.745Z,0.00
2018-07-02T01:14:19.765Z,0.00
2018-07-02T01:15:19.761Z,0.00
2018-07-02T01:16:19.752Z,0.00
2018-07-02T01:17:19.782Z,0.00
2018-07-02T01:18:19.731Z,0.00
2018-07-02T01:19:19.740Z,0.00
2018-07-02T01:20:19.739Z,0.00
2018-07-02T01:21:19.768Z,0.00
2018-07-02T01:22:19.878Z,0.00
2018-07-02T01:23:19.735Z,0.00
2018-07-02T01:24:19.791Z,0.00
2018-07-02T01:25:19.794Z,0.00
2018-07-02T01:26:19.729Z,0.00
2018-07-02T01:27:19.742Z,0.00
2018-07-02T01:28:19.728Z,0.00
2018-07-02T01:29:19.727Z,0.00
2018-07-02T01:30:19.715Z,0.00
2018-07-02T01:31:19.744Z,0.00
2018-07-02T01:32:19.723Z,0.00
2018-07-02T01:33:19.707Z,0.00
2018-07-02T01:34:19.743Z,0.00
2018-07-02T01:35:19.736Z,0.00
2018-07-02T01:36:19.726Z,0.00
2018-07-02T01:37:19.704Z,0.00
2018-07-02T01:38:19.712Z,0.00
2018-07-02T01:39:19.744Z,0.00
2018-07-02T01:40:19.803Z,0.00
2018-07-02T01:41:19.714Z,0.00
2018-07-02T01:42:19.721Z,0.00
2018-07-02T01:43:19.731Z,0.00
2018-07-02T01:44:19.717Z,0.00
2018-07-02T01:45:19.743Z,0.00
2018-07-02T01:46:19.709Z,0.00
2018-07-02T01:47:19.705Z,0.00
2018-07-02T01:48:19.683Z,0.00
2018-07-02T01:49:19.663Z,0.00
2018-07-02T01:50:19.744Z,0.00
2018-07-02T01:51:19.690Z,0.00
2018-07-02T01:52:19.685Z,0.00
2018-07-02T01:53:19.682Z,0.00
2018-07-02T01:54:19.681Z,0.00
2018-07-02T01:55:19.673Z,0.00
2018-07-02T01:56:19.722Z,0.00
2018-07-02T01:57:19.731Z,0.00
2018-07-02T01:58:19.740Z,0.00
2018-07-02T01:59:19.702Z,0.00
2018-07-02T02:00:19.657Z,0.00
2018-07-02T02:01:19.670Z,0.00
2018-07-02T02:02:19.638Z,0.00
2018-07-02T02:03:19.655Z,0.00
2018-07-02T02:04:19.668Z,0.00
2018-07-02T02:05:19.680Z,0.00
2018-07-02T02:06:19.657Z,0.00
2018-07-02T02:07:19.620Z,0.00
2018-07-02T02:08:19.657Z,0.00
2018-07-02T02:09:19.634Z,0.00
2018-07-02T02:10:19.675Z,0.00
2018-07-02T02:11:19.673Z,0.00
2018-07-02T02:12:19.794Z,0.00
2018-07-02T02:13:19.661Z,0.00
2018-07-02T02:14:19.655Z,0.00
2018-07-02T02:15:19.705Z,0.00
2018-07-02T02:16:19.625Z,0.00
2018-07-02T02:17:19.640Z,0.00
2018-07-02T02:18:19.704Z,0.00
2018-07-02T02:19:19.629Z,0.00
2018-07-02T02:20:19.684Z,0.00
2018-07-02T02:21:20.546Z,0.00
2018-07-02T02:22:19.625Z,0.00
2018-07-02T02:23:19.659Z,0.00
2018-07-02T02:24:19.679Z,0.00
2018-07-02T02:25:19.638Z,0.00
2018-07-02T02:26:19.603Z,0.00
2018-07-02T02:27:19.627Z,0.00
2018-07-02T02:28:19.650Z,0.00
2018-07-02T02:29:19.653Z,0.00
2018-07-02T02:30:19.616Z,0.00
2018-07-02T02:31:19.681Z,0.00
2018-07-02T02:32:19.598Z,0.00
2018-07-02T02:33:19.641Z,0.00
2018-07-02T02:34:19.586Z,0.00
2018-07-02T02:35:19.678Z,0.00
2018-07-02T02:36:19.600Z,4.00
2018-07-02T02:37:19.599Z,4.00
2018-07-02T02:38:19.640Z,0.00
2018-07-02T02:39:19.581Z,0.00
2018-07-02T02:40:19.620Z,4.00
2018-07-02T02:41:19.617Z,4.00
2018-07-02T02:42:19.582Z,0.00
2018-07-02T02:43:19.592Z,4.00
2018-07-02T02:44:19.650Z,4.00
2018-07-02T02:45:19.567Z,4.00
2018-07-02T02:46:19.601Z,4.00
2018-07-02T02:47:19.557Z,4.00
2018-07-02T02:48:19.590Z,8.00
2018-07-02T02:49:22.541Z,4.00
2018-07-02T02:50:19.586Z,8.00
2018-07-02T02:51:19.586Z,8.00
2018-07-02T02:52:19.617Z,8.00
2018-07-02T02:53:19.586Z,8.00
2018-07-02T02:54:19.605Z,12.00
2018-07-02T02:55:19.615Z,12.00
2018-07-02T02:56:19.576Z,16.00
2018-07-02T02:57:19.515Z,16.00
2018-07-02T02:58:19.603Z,16.00
2018-07-02T02:59:19.569Z,20.00
2018-07-02T03:00:19.560Z,24.00
2018-07-02T03:01:19.622Z,20.00
2018-07-02T03:02:20.545Z,24.00
2018-07-02T03:03:19.555Z,28.00
2018-07-02T03:04:19.550Z,28.00
2018-07-02T03:05:19.492Z,32.00
2018-07-02T03:06:19.507Z,36.00
2018-07-02T03:07:19.557Z,40.00
2018-07-02T03:08:19.492Z,40.00
2018-07-02T03:09:19.531Z,48.00
2018-07-02T03:10:19.511Z,48.00
2018-07-02T03:11:19.522Z,52.00
2018-07-02T03:12:19.518Z,60.00
2018-07-02T03:13:19.565Z,60.00
2018-07-02T03:14:19.601Z,64.00
2018-07-02T03:15:19.527Z,68.00
2018-07-02T03:16:19.504Z,72.00
2018-07-02T03:17:19.484Z,80.00
2018-07-02T03:18:19.474Z,84.00
2018-07-02T03:19:19.511Z,92.00
2018-07-02T03:20:19.615Z,96.00
2018-07-02T03:21:19.564Z,100.00
2018-07-02T03:22:19.585Z,104.00
2018-07-02T03:23:19.597Z,112.00
2018-07-02T03:24:19.608Z,120.00
2018-07-02T03:25:19.491Z,128.00
2018-07-02T03:26:19.518Z,132.00
2018-07-02T03:27:19.523Z,140.00
2018-07-02T03:28:19.508Z,144.00
2018-07-02T03:29:29.058Z,152.00
2018-07-02T03:31:24.498Z,160.00
2018-07-02T03:32:13.942Z,168.00
2018-07-02T03:33:14.985Z,176.00
2018-07-02T03:34:14.468Z,176.00
2018-07-02T03:35:13.877Z,184.00
2018-07-02T03:36:13.947Z,192.00
2018-07-02T03:37:16.832Z,200.00
2018-07-02T03:38:17.330Z,204.00
2018-07-02T03:39:13.779Z,212.00
2018-07-02T03:40:13.505Z,216.00
2018-07-02T03:41:15.504Z,224.00
2018-07-02T03:42:13.483Z,228.00
2018-07-02T03:43:13.523Z,240.00
2018-07-02T03:44:15.546Z,248.00
2018-07-02T03:45:15.554Z,264.00
2018-07-02T03:46:13.449Z,288.00
2018-07-02T03:47:13.512Z,308.00
2018-07-02T03:48:13.474Z,324.00
2018-07-02T03:49:13.501Z,336.00
2018-07-02T03:50:13.427Z,352.00
2018-07-02T03:51:13.428Z,364.00
2018-07-02T03:52:13.487Z,376.00
2018-07-02T03:53:13.464Z,392.00
2018-07-02T03:54:13.392Z,400.00
2018-07-02T03:55:13.410Z,412.00
2018-07-02T03:56:13.414Z,420.00
2018-07-02T03:57:13.392Z,428.00
2018-07-02T03:58:13.494Z,436.00
2018-07-02T03:59:13.455Z,444.00
2018-07-02T04:00:13.408Z,460.00
2018-07-02T04:01:13.393Z,464.00
2018-07-02T04:02:13.434Z,480.00
2018-07-02T04:03:13.410Z,492.00
2018-07-02T04:04:13.400Z,508.00
2018-07-02T04:05:13.370Z,524.00
2018-07-02T04:06:13.415Z,540.00
2018-07-02T04:07:13.433Z,556.00
2018-07-02T04:08:13.365Z,568.00
2018-07-02T04:09:14.955Z,592.00
2018-07-02T04:10:13.377Z,604.00
2018-07-02T04:11:13.438Z,620.00
2018-07-02T04:12:13.434Z,640.00
2018-07-02T04:13:13.402Z,652.00
2018-07-02T04:14:13.463Z,664.00
2018-07-02T04:15:13.965Z,672.00
2018-07-02T04:16:14.944Z,672.00
2018-07-02T04:17:13.365Z,680.00
2018-07-02T04:18:13.395Z,684.00
2018-07-02T04:19:13.336Z,688.00
2018-07-02T04:20:13.388Z,688.00
2018-07-02T04:21:13.328Z,684.00
2018-07-02T04:22:13.338Z,680.00
2018-07-02T04:23:13.395Z,672.00
2018-07-02T04:24:13.380Z,664.00
2018-07-02T04:25:13.352Z,652.00
2018-07-02T04:26:13.351Z,644.00
2018-07-02T04:27:13.386Z,636.00
2018-07-02T04:28:13.354Z,624.00
2018-07-02T04:29:13.311Z,616.00
2018-07-02T04:30:13.391Z,608.00
2018-07-02T04:31:13.337Z,596.00
2018-07-02T04:32:13.324Z,592.00
2018-07-02T04:33:13.373Z,580.00
2018-07-02T04:34:13.400Z,572.00
2018-07-02T04:35:13.332Z,568.00
2018-07-02T04:36:13.330Z,560.00
2018-07-02T04:37:13.337Z,560.00
2018-07-02T04:38:13.319Z,560.00
2018-07-02T04:39:13.333Z,556.00
2018-07-02T04:40:13.332Z,560.00
2018-07-02T04:41:13.324Z,560.00
2018-07-02T04:42:13.312Z,556.00
2018-07-02T04:43:13.289Z,556.00
2018-07-02T04:44:13.336Z,560.00
2018-07-02T04:45:13.324Z,560.00
2018-07-02T04:46:13.312Z,564.00
2018-07-02T04:47:13.296Z,564.00
2018-07-02T04:48:13.322Z,564.00
2018-07-02T04:49:13.316Z,564.00
2018-07-02T04:50:13.336Z,564.00
2018-07-02T04:51:13.319Z,564.00
2018-07-02T04:52:13.326Z,568.00
2018-07-02T04:53:13.297Z,568.00
2018-07-02T04:54:13.306Z,572.00
2018-07-02T04:55:13.310Z,572.00
2018-07-02T04:56:13.295Z,568.00
2018-07-02T04:57:13.300Z,568.00
2018-07-02T04:58:13.317Z,568.00
2018-07-02T04:59:13.401Z,568.00
2018-07-02T05:00:13.316Z,572.00
2018-07-02T05:01:13.319Z,576.00
2018-07-02T05:02:13.344Z,584.00
2018-07-02T05:03:13.322Z,600.00
2018-07-02T05:04:13.315Z,620.00
2018-07-02T05:05:13.381Z,632.00
2018-07-02T05:06:13.312Z,648.00
2018-07-02T05:07:13.325Z,660.00
2018-07-02T05:08:13.337Z,676.00
2018-07-02T05:09:13.324Z,692.00
2018-07-02T05:10:13.300Z,708.00
2018-07-02T05:11:13.317Z,720.00
2018-07-02T05:12:13.322Z,744.00
2018-07-02T05:13:13.313Z,764.00
2018-07-02T05:14:13.345Z,784.00
2018-07-02T05:15:13.402Z,808.00
2018-07-02T05:16:13.281Z,828.00
2018-07-02T05:17:13.295Z,848.00
2018-07-02T05:18:13.319Z,872.00
2018-07-02T05:19:13.603Z,904.00
2018-07-02T05:20:13.512Z,936.00
2018-07-02T05:21:13.379Z,980.00
2018-07-02T05:22:17.908Z,1004.00
2018-07-02T05:23:13.360Z,1036.00
2018-07-02T05:24:14.598Z,1072.00
2018-07-02T05:25:13.277Z,1112.00
2018-07-02T05:26:13.292Z,1156.00
2018-07-02T05:27:13.273Z,1196.00
2018-07-02T05:28:13.309Z,1232.00
2018-07-02T05:29:13.337Z,1268.00
2018-07-02T05:30:13.286Z,1300.00
2018-07-02T05:31:13.279Z,1336.00
2018-07-02T05:32:13.287Z,1372.00
2018-07-02T05:33:13.270Z,1400.00
2018-07-02T05:34:13.279Z,1432.00
2018-07-02T05:35:13.243Z,1472.00
2018-07-02T05:36:13.259Z,1500.00
2018-07-02T05:37:13.295Z,1532.00
2018-07-02T05:38:13.264Z,1564.00
2018-07-02T05:39:13.282Z,1580.00
2018-07-02T05:40:13.264Z,1584.00
2018-07-02T05:41:13.277Z,1588.00
2018-07-02T05:42:13.279Z,1588.00
2018-07-02T05:43:13.275Z,1588.00
2018-07-02T05:44:13.268Z,1592.00
2018-07-02T05:45:13.265Z,1600.00
2018-07-02T05:46:13.263Z,1604.00
2018-07-02T05:47:13.250Z,1612.00
2018-07-02T05:48:13.321Z,1620.00
2018-07-02T05:49:13.265Z,1628.00
2018-07-02T05:50:13.276Z,1632.00
2018-07-02T05:51:13.280Z,1648.00
2018-07-02T05:52:13.302Z,1660.00
2018-07-02T05:53:13.284Z,1632.00
2018-07-02T05:54:13.252Z,1692.00
2018-07-02T05:55:13.309Z,1712.00
2018-07-02T05:56:13.272Z,1732.00
2018-07-02T05:57:13.267Z,1752.00
2018-07-02T05:58:13.304Z,1772.00
2018-07-02T05:59:13.360Z,1800.00
2018-07-02T06:00:13.371Z,1820.00
2018-07-02T06:01:13.295Z,1840.00
2018-07-02T06:02:13.306Z,1852.00
2018-07-02T06:03:13.266Z,1868.00
2018-07-02T06:04:13.292Z,1880.00
2018-07-02T06:05:13.270Z,1892.00
2018-07-02T06:06:13.282Z,1904.00
2018-07-02T06:07:13.295Z,1908.00
2018-07-02T06:08:13.305Z,1916.00
2018-07-02T06:09:13.399Z,1924.00
2018-07-02T06:10:13.294Z,1936.00
2018-07-02T06:11:13.286Z,1952.00
2018-07-02T06:12:13.304Z,1960.00
2018-07-02T06:13:13.325Z,1972.00
2018-07-02T06:14:13.273Z,1980.00
2018-07-02T06:15:13.285Z,1984.00
2018-07-02T06:16:13.328Z,1992.00
2018-07-02T06:17:13.309Z,2000.00
2018-07-02T06:18:13.280Z,2004.00
2018-07-02T06:19:13.316Z,2012.00
2018-07-02T06:20:13.303Z,2020.00
2018-07-02T06:21:13.334Z,2032.00
2018-07-02T06:22:13.327Z,2040.00
2018-07-02T06:23:13.306Z,2060.00
2018-07-02T06:24:13.294Z,2068.00
2018-07-02T06:25:13.302Z,2136.00
2018-07-02T06:26:13.302Z,2528.00
2018-07-02T06:27:13.326Z,3332.00
2018-07-02T06:28:13.313Z,3984.00
2018-07-02T06:29:13.330Z,4208.00
2018-07-02T06:30:13.329Z,4236.00
2018-07-02T06:31:13.349Z,4248.00
2018-07-02T06:32:13.347Z,4264.00
2018-07-02T06:33:13.347Z,4240.00
2018-07-02T06:34:13.318Z,3676.00
2018-07-02T06:35:13.346Z,4236.00
2018-07-02T06:36:13.349Z,4260.00
2018-07-02T06:37:13.351Z,4240.00
2018-07-02T06:38:13.328Z,4228.00
2018-07-02T06:39:13.334Z,4228.00
2018-07-02T06:40:13.335Z,4232.00
2018-07-02T06:41:13.338Z,4220.00
2018-07-02T06:42:13.346Z,4220.00
2018-07-02T06:43:13.349Z,4216.00
2018-07-02T06:44:13.356Z,4232.00
2018-07-02T06:45:13.506Z,4252.00
2018-07-02T06:46:13.397Z,4228.00
2018-07-02T06:47:13.398Z,4240.00
2018-07-02T06:48:13.422Z,4244.00
2018-07-02T06:49:13.414Z,4264.00
2018-07-02T06:50:13.411Z,4256.00
2018-07-02T06:51:13.433Z,4268.00
2018-07-02T06:52:13.418Z,4268.00
2018-07-02T06:53:13.436Z,4284.00
2018-07-02T06:54:13.449Z,4296.00
2018-07-02T06:55:13.443Z,4316.00
2018-07-02T06:56:13.426Z,4312.00
2018-07-02T06:57:13.430Z,4332.00
2018-07-02T06:58:13.469Z,4348.00
2018-07-02T06:59:13.461Z,4336.00
2018-07-02T07:00:13.477Z,4348.00
2018-07-02T07:01:13.488Z,4368.00
2018-07-02T07:02:13.494Z,4372.00
2018-07-02T07:03:13.494Z,4424.00
2018-07-02T07:04:13.495Z,4448.00
2018-07-02T07:05:13.514Z,4504.00
2018-07-02T07:06:13.512Z,4548.00
2018-07-02T07:07:13.551Z,4588.00
2018-07-02T07:08:13.523Z,4616.00
2018-07-02T07:09:13.503Z,4628.00
2018-07-02T07:10:13.523Z,4668.00
2018-07-02T07:11:13.552Z,4708.00
2018-07-02T07:12:13.520Z,4808.00
2018-07-02T07:13:13.550Z,4916.00
2018-07-02T07:14:13.644Z,5036.00
2018-07-02T07:15:13.543Z,5112.00
2018-07-02T07:16:13.634Z,5228.00
2018-07-02T07:17:13.614Z,5336.00
2018-07-02T07:18:13.638Z,5440.00
2018-07-02T07:19:14.587Z,5532.00
2018-07-02T07:20:13.638Z,5684.00
2018-07-02T07:21:13.635Z,5756.00
2018-07-02T07:22:13.622Z,5756.00
2018-07-02T07:23:13.669Z,5780.00
2018-07-02T07:24:13.647Z,5836.00
2018-07-02T07:25:13.656Z,5900.00
2018-07-02T07:26:15.457Z,6008.00
2018-07-02T07:27:13.687Z,6124.00
2018-07-02T07:28:13.671Z,6100.00
2018-07-02T07:29:13.678Z,6072.00
2018-07-02T07:30:13.712Z,6148.00
2018-07-02T07:31:13.714Z,6296.00
2018-07-02T07:32:13.705Z,6392.00
2018-07-02T07:33:13.704Z,6432.00
2018-07-02T07:34:13.782Z,6488.00
2018-07-02T07:35:13.800Z,6456.00
2018-07-02T07:36:13.735Z,6496.00
2018-07-02T07:37:13.763Z,6528.00
2018-07-02T07:38:13.758Z,6560.00
2018-07-02T07:39:13.770Z,6540.00
2018-07-02T07:40:13.788Z,6568.00
2018-07-02T07:41:13.787Z,6540.00
2018-07-02T07:42:13.801Z,6528.00
2018-07-02T07:43:13.776Z,6584.00
2018-07-02T07:44:13.842Z,6572.00
2018-07-02T07:45:13.797Z,6604.00
2018-07-02T07:46:13.830Z,6620.00
2018-07-02T07:47:13.847Z,6664.00
2018-07-02T07:48:13.818Z,6680.00
2018-07-02T07:49:13.831Z,6720.00
2018-07-02T07:50:15.530Z,6784.00
2018-07-02T07:51:21.334Z,6856.00
2018-07-02T07:53:08.705Z,6928.00
2018-07-02T07:54:09.166Z,6988.00
2018-07-02T07:56:01.681Z,7152.00
2018-07-02T07:57:01.413Z,7192.00
2018-07-02T07:58:54.861Z,7308.00
2018-07-02T07:59:54.768Z,7360.00
2018-07-02T08:01:48.911Z,7464.00
2018-07-02T08:02:48.859Z,7532.00
2018-07-02T08:04:42.814Z,7684.00
2018-07-02T08:05:42.893Z,7828.00
2018-07-02T08:07:36.712Z,7912.00
2018-07-02T08:08:36.976Z,7972.00
2018-07-02T08:10:32.433Z,8216.00
2018-07-02T08:11:31.463Z,8300.00
2018-07-02T08:12:31.551Z,8288.00
2018-07-02T08:13:31.477Z,8380.00
2018-07-02T08:14:31.276Z,8460.00
2018-07-02T08:15:31.430Z,8480.00
2018-07-02T08:16:31.200Z,8476.00
2018-07-02T08:17:31.183Z,8472.00
2018-07-02T08:18:31.283Z,8504.00
2018-07-02T08:19:31.297Z,8552.00
2018-07-02T08:20:31.223Z,8552.00
2018-07-02T08:21:31.216Z,8568.00
2018-07-02T08:22:31.230Z,8540.00
2018-07-02T08:23:33.077Z,8592.00
2018-07-02T08:24:31.346Z,8628.00
2018-07-02T08:25:31.277Z,8676.00
2018-07-02T08:26:31.286Z,8728.00
2018-07-02T08:27:31.323Z,8776.00
2018-07-02T08:28:31.320Z,8792.00
2018-07-02T08:29:31.385Z,8836.00
2018-07-02T08:30:31.306Z,8888.00
2018-07-02T08:31:31.363Z,8868.00
2018-07-02T08:32:31.472Z,8932.00
2018-07-02T08:33:31.321Z,8972.00
2018-07-02T08:34:31.387Z,9000.00
2018-07-02T08:35:33.085Z,9120.00
2018-07-02T08:36:31.379Z,9108.00
2018-07-02T08:37:31.384Z,9156.00
2018-07-02T08:38:31.378Z,9276.00
2018-07-02T08:39:33.041Z,9300.00
2018-07-02T08:40:31.543Z,9380.00
2018-07-02T08:41:31.534Z,9360.00
2018-07-02T08:42:31.459Z,9424.00
2018-07-02T08:43:31.520Z,9492.00
2018-07-02T08:44:31.483Z,9604.00
2018-07-02T08:45:31.495Z,9628.00
2018-07-02T08:46:31.504Z,9684.00
2018-07-02T08:47:31.524Z,9812.00
2018-07-02T08:48:31.499Z,10020.00
2018-07-02T08:49:31.543Z,10216.00
2018-07-02T08:50:31.561Z,10444.00
2018-07-02T08:51:31.555Z,10460.00
2018-07-02T08:52:33.744Z,10524.00
2018-07-02T08:53:31.539Z,10484.00
2018-07-02T08:54:31.617Z,10304.00
2018-07-02T08:55:31.591Z,10140.00
2018-07-02T08:56:31.664Z,9988.00
2018-07-02T08:57:31.586Z,9892.00
2018-07-02T08:58:34.534Z,9780.00
2018-07-02T08:59:31.692Z,9668.00
2018-07-02T09:00:31.651Z,9500.00
2018-07-02T09:01:31.765Z,9380.00
2018-07-02T09:02:31.674Z,9220.00
2018-07-02T09:03:33.511Z,8896.00
2018-07-02T09:04:33.686Z,8544.00
2018-07-02T09:05:31.707Z,8088.00
2018-07-02T09:06:31.719Z,7664.00
2018-07-02T09:07:31.738Z,7188.00
2018-07-02T09:08:31.736Z,6528.00
2018-07-02T09:09:31.832Z,5840.00
2018-07-02T09:10:31.740Z,5400.00
2018-07-02T09:11:31.757Z,4968.00
2018-07-02T09:12:31.832Z,4632.00
2018-07-02T09:13:31.868Z,4320.00
2018-07-02T09:14:31.792Z,4012.00
2018-07-02T09:15:31.798Z,3612.00
2018-07-02T09:16:31.822Z,3328.00
2018-07-02T09:17:31.829Z,3168.00
2018-07-02T09:18:31.825Z,3092.00
2018-07-02T09:19:31.810Z,3052.00
2018-07-02T09:20:31.863Z,3040.00
2018-07-02T09:21:31.856Z,3036.00
2018-07-02T09:22:31.860Z,3028.00
2018-07-02T09:23:31.845Z,3028.00
2018-07-02T09:24:31.911Z,3024.00
2018-07-02T09:25:33.588Z,3016.00
2018-07-02T09:26:31.918Z,3028.00
2018-07-02T09:27:31.907Z,3028.00
2018-07-02T09:28:31.919Z,3020.00
2018-07-02T09:29:31.898Z,3032.00
2018-07-02T09:30:31.897Z,3028.00
2018-07-02T09:31:31.943Z,3032.00
2018-07-02T09:32:31.924Z,3028.00
2018-07-02T09:33:31.920Z,3028.00
2018-07-02T09:34:31.946Z,3036.00
2018-07-02T09:35:31.937Z,3040.00
2018-07-02T09:36:31.946Z,3028.00
2018-07-02T09:37:31.952Z,3028.00
2018-07-02T09:38:31.957Z,3040.00
2018-07-02T09:39:31.967Z,3048.00
2018-07-02T09:40:31.973Z,3024.00
2018-07-02T09:41:31.987Z,3028.00
2018-07-02T09:42:31.995Z,3028.00
2018-07-02T09:43:32.018Z,3032.00
2018-07-02T09:44:32.004Z,3032.00
2018-07-02T09:45:32.026Z,3032.00
2018-07-02T09:46:32.051Z,3020.00
2018-07-02T09:47:32.038Z,3024.00
2018-07-02T09:48:32.061Z,3024.00
2018-07-02T09:49:32.086Z,3020.00
2018-07-02T09:50:32.074Z,3016.00
2018-07-02T09:51:32.066Z,3012.00
2018-07-02T09:52:32.102Z,3016.00
2018-07-02T09:53:32.106Z,3008.00
2018-07-02T09:54:32.112Z,3004.00
2018-07-02T09:55:32.085Z,3004.00
2018-07-02T09:56:32.141Z,2996.00
2018-07-02T09:57:32.115Z,2996.00
2018-07-02T09:58:32.155Z,2988.00
2018-07-02T09:59:32.112Z,2984.00
2018-07-02T10:00:32.151Z,2984.00
2018-07-02T10:01:32.161Z,2988.00
2018-07-02T10:02:32.169Z,2976.00
2018-07-02T10:03:32.197Z,2976.00
2018-07-02T10:04:32.182Z,2976.00
2018-07-02T10:05:32.183Z,2972.00
2018-07-02T10:06:32.206Z,2968.00
2018-07-02T10:07:32.202Z,2960.00
2018-07-02T10:08:32.180Z,2956.00
2018-07-02T10:09:34.035Z,2952.00
2018-07-02T10:10:34.067Z,2952.00
2018-07-02T10:11:35.064Z,2944.00
2018-07-02T10:12:32.301Z,2936.00
2018-07-02T10:13:32.457Z,2940.00
2018-07-02T10:14:32.306Z,2928.00
2018-07-02T10:15:32.253Z,2924.00
2018-07-02T10:16:32.260Z,2924.00
2018-07-02T10:17:32.281Z,2920.00
2018-07-02T10:18:32.248Z,2916.00
2018-07-02T10:19:32.324Z,2908.00
2018-07-02T10:20:32.342Z,2912.00
2018-07-02T10:21:32.285Z,2900.00
2018-07-02T10:22:32.276Z,2900.00
2018-07-02T10:23:37.332Z,2888.00
2018-07-02T10:24:32.298Z,2884.00
2018-07-02T10:25:32.328Z,2880.00
2018-07-02T10:26:32.328Z,2876.00
2018-07-02T10:27:32.318Z,2876.00
2018-07-02T10:28:32.359Z,2868.00
2018-07-02T10:29:32.354Z,2860.00
2018-07-02T10:30:32.368Z,2848.00
2018-07-02T10:31:32.344Z,2848.00
2018-07-02T10:32:32.375Z,2836.00
2018-07-02T10:33:32.376Z,2832.00
2018-07-02T10:34:32.364Z,2824.00
2018-07-02T10:35:32.404Z,2816.00
2018-07-02T10:36:32.423Z,2812.00
2018-07-02T10:37:32.425Z,2804.00
2018-07-02T10:38:32.420Z,2792.00
2018-07-02T10:39:32.435Z,2792.00
2018-07-02T10:40:32.407Z,2784.00
2018-07-02T10:41:32.428Z,2776.00
2018-07-02T10:42:32.466Z,2760.00
2018-07-02T10:43:32.436Z,2756.00
2018-07-02T10:44:32.546Z,2752.00
2018-07-02T10:45:32.440Z,2736.00
2018-07-02T10:46:32.475Z,2732.00
2018-07-02T10:47:32.473Z,2724.00
2018-07-02T10:48:32.489Z,2724.00
2018-07-02T10:49:32.469Z,2712.00
2018-07-02T10:50:32.505Z,2700.00
2018-07-02T10:51:33.008Z,2684.00
2018-07-02T10:52:34.076Z,2688.00
2018-07-02T10:53:32.503Z,2672.00
2018-07-02T10:54:32.531Z,2664.00
2018-07-02T10:55:32.607Z,2660.00
2018-07-02T10:56:32.558Z,2652.00
2018-07-02T10:57:34.074Z,2648.00
2018-07-02T10:58:32.537Z,2636.00
2018-07-02T10:59:32.571Z,2632.00
2018-07-02T11:00:32.579Z,2620.00
2018-07-02T11:01:32.556Z,2612.00
2018-07-02T11:02:32.563Z,2600.00
2018-07-02T11:03:32.572Z,2596.00
2018-07-02T11:04:32.579Z,2588.00
2018-07-02T11:05:32.612Z,2580.00
2018-07-02T11:06:32.622Z,2576.00
2018-07-02T11:07:34.558Z,2568.00
2018-07-02T11:08:32.604Z,2560.00
2018-07-02T11:09:32.636Z,2552.00
2018-07-02T11:10:32.625Z,2548.00
2018-07-02T11:11:32.630Z,2540.00
2018-07-02T11:12:32.634Z,2496.00
2018-07-02T11:13:32.652Z,2528.00
2018-07-02T11:14:32.712Z,2520.00
2018-07-02T11:15:32.688Z,2520.00
2018-07-02T11:16:32.721Z,2516.00
2018-07-02T11:17:32.670Z,2508.00
2018-07-02T11:18:32.682Z,2500.00
2018-07-02T11:19:32.746Z,2496.00
2018-07-02T11:20:32.736Z,2484.00
2018-07-02T11:21:32.729Z,2476.00
2018-07-02T11:22:32.739Z,2472.00
2018-07-02T11:23:32.810Z,2460.00
2018-07-02T11:24:32.790Z,2464.00
2018-07-02T11:25:32.826Z,2460.00
2018-07-02T11:26:32.797Z,2448.00
2018-07-02T11:27:32.776Z,2436.00
2018-07-02T11:28:32.779Z,2436.00
2018-07-02T11:29:32.781Z,2432.00
2018-07-02T11:30:32.800Z,2424.00
2018-07-02T11:31:32.810Z,2424.00
2018-07-02T11:32:32.780Z,2412.00
2018-07-02T11:33:32.786Z,2404.00
2018-07-02T11:34:32.883Z,2400.00
2018-07-02T11:35:32.878Z,2396.00
2018-07-02T11:36:32.861Z,2392.00
2018-07-02T11:37:32.881Z,2384.00
2018-07-02T11:38:32.883Z,2376.00
2018-07-02T11:39:32.863Z,2372.00
2018-07-02T11:40:32.834Z,2364.00
2018-07-02T11:41:32.883Z,2352.00
2018-07-02T11:42:32.933Z,2348.00
2018-07-02T11:43:32.864Z,2336.00
2018-07-02T11:44:32.864Z,2336.00
2018-07-02T11:45:32.873Z,2328.00
2018-07-02T11:46:32.903Z,2316.00
2018-07-02T11:47:32.896Z,2312.00
2018-07-02T11:48:32.985Z,2300.00
2018-07-02T11:49:33.014Z,2300.00
2018-07-02T11:50:32.943Z,2288.00
2018-07-02T11:51:32.962Z,2280.00
2018-07-02T11:52:32.958Z,2272.00
2018-07-02T11:53:32.987Z,2264.00
2018-07-02T11:54:33.004Z,2260.00
2018-07-02T11:55:32.980Z,2252.00
2018-07-02T11:56:33.052Z,2244.00
2018-07-02T11:57:33.118Z,2244.00
2018-07-02T11:58:33.001Z,2240.00
2018-07-02T11:59:33.013Z,2224.00
2018-07-02T12:00:33.058Z,2220.00
2018-07-02T12:01:33.007Z,2204.00
2018-07-02T12:02:33.668Z,2204.00
2018-07-02T12:03:33.103Z,2196.00
2018-07-02T12:04:33.076Z,2184.00
2018-07-02T12:05:33.049Z,2184.00
2018-07-02T12:06:33.230Z,2176.00
2018-07-02T12:07:33.092Z,2172.00
2018-07-02T12:08:33.118Z,2164.00
2018-07-02T12:09:33.074Z,2156.00
2018-07-02T12:10:33.111Z,2152.00
2018-07-02T12:11:33.134Z,2148.00
2018-07-02T12:12:33.086Z,2144.00
2018-07-02T12:13:34.095Z,2136.00
2018-07-02T12:14:33.122Z,2132.00
2018-07-02T12:15:33.120Z,2120.00
2018-07-02T12:16:33.147Z,2112.00
2018-07-02T12:17:33.205Z,2108.00
2018-07-02T12:18:33.142Z,2104.00
2018-07-02T12:19:33.127Z,2092.00
2018-07-02T12:20:33.137Z,2092.00
2018-07-02T12:21:33.178Z,2092.00
2018-07-02T12:22:33.181Z,2080.00
2018-07-02T12:23:33.216Z,2076.00
2018-07-02T12:24:33.178Z,2068.00
2018-07-02T12:25:33.208Z,2060.00
2018-07-02T12:26:33.207Z,2056.00
2018-07-02T12:27:33.217Z,2052.00
2018-07-02T12:28:33.188Z,2048.00
2018-07-02T12:29:33.225Z,2036.00
2018-07-02T12:30:33.214Z,2024.00
2018-07-02T12:31:33.224Z,2024.00
2018-07-02T12:32:33.238Z,2016.00
2018-07-02T12:33:33.291Z,2004.00